createdAt,value
2022-08-06T00:00:07.217Z,22.03
2022-08-06T00:02:32.261Z,22.01
2022-08-06T00:05:09.167Z,21.96
2022-08-06T00:07:48.194Z,22.00
2022-08-06T00:10:29.712Z,21.98
2022-08-06T00:13:00.385Z,22.00
2022-08-06T00:16:05.909Z,21.98
2022-08-06T00:18:21.850Z,21.97
2022-08-06T00:20:53.514Z,21.96
2022-08-06T00:23:24.252Z,21.92
2022-08-06T00:25:54.571Z,21.86
2022-08-06T00:28:30.980Z,21.78
2022-08-06T00:31:05.606Z,21.78
2022-08-06T00:33:43.931Z,21.74
2022-08-06T00:36:24.849Z,21.70
2022-08-06T00:38:54.774Z,21.71
2022-08-06T00:41:26.992Z,21.75
2022-08-06T00:43:57.290Z,21.73
2022-08-06T00:46:26.573Z,21.70
2022-08-06T00:48:56.730Z,21.72
2022-08-06T00:51:43.157Z,21.73
2022-08-06T00:54:15.402Z,21.74
2022-08-06T00:56:46.776Z,21.73
2022-08-06T00:59:16.241Z,21.73
2022-08-06T01:01:50.828Z,21.71
2022-08-06T01:04:22.037Z,21.74
2022-08-06T01:06:58.433Z,21.70
2022-08-06T01:09:31.836Z,21.69
2022-08-06T01:12:03.544Z,21.70
2022-08-06T01:14:39.242Z,21.70
2022-08-06T01:17:23.471Z,21.68
2022-08-06T01:21:58.360Z,21.62
2022-08-06T01:23:30.360Z,21.61
2022-08-06T01:26:34.148Z,21.59
2022-08-06T01:29:14.505Z,21.54
2022-08-06T01:31:55.946Z,21.53
2022-08-06T01:34:33.943Z,21.54
2022-08-06T01:37:14.219Z,21.50
2022-08-06T01:40:01.576Z,21.53
2022-08-06T01:42:36.594Z,21.50
2022-08-06T01:45:14.296Z,21.47
2022-08-06T01:47:54.051Z,21.49
2022-08-06T01:50:31.019Z,21.47
2022-08-06T01:53:03.589Z,21.49
2022-08-06T01:55:56.776Z,21.47
2022-08-06T01:58:32.893Z,21.43
2022-08-06T02:01:08.855Z,21.43
2022-08-06T02:03:53.195Z,21.43
2022-08-06T02:06:34.354Z,21.43
2022-08-06T02:09:21.947Z,21.39
2022-08-06T02:12:02.500Z,21.43
2022-08-06T02:14:41.631Z,21.40
2022-08-06T02:17:18.151Z,21.37
2022-08-06T02:20:18.534Z,21.46
2022-08-06T02:23:01.971Z,21.42
2022-08-06T02:25:34.781Z,21.44
2022-08-06T02:28:07.573Z,21.45
2022-08-06T02:30:44.595Z,21.54
2022-08-06T02:34:01.236Z,21.66
2022-08-06T02:36:26.950Z,21.88
2022-08-06T02:39:08.958Z,22.06
2022-08-06T02:41:55.641Z,22.24
2022-08-06T02:44:38.180Z,22.40
2022-08-06T02:47:21.467Z,22.53
2022-08-06T02:49:57.986Z,22.70
2022-08-06T02:52:47.637Z,22.83
2022-08-06T02:55:34.372Z,22.85
2022-08-06T02:58:15.348Z,23.05
2022-08-06T03:00:51.856Z,23.15
2022-08-06T03:03:35.104Z,23.33
2022-08-06T03:06:09.531Z,23.51
2022-08-06T03:08:42.570Z,23.56
2022-08-06T03:11:14.604Z,23.62
2022-08-06T03:13:45.996Z,23.71
2022-08-06T03:16:23.751Z,23.84
2022-08-06T03:19:54.161Z,23.91
2022-08-06T03:21:55.418Z,23.98
2022-08-06T03:24:28.492Z,23.91
2022-08-06T03:27:01.107Z,23.86
2022-08-06T03:29:32.982Z,23.69
2022-08-06T03:32:24.854Z,23.65
2022-08-06T03:34:53.659Z,23.58
2022-08-06T03:37:45.388Z,23.48
2022-08-06T03:40:16.686Z,23.44
2022-08-06T03:42:52.347Z,23.47
2022-08-06T03:45:35.691Z,23.46
2022-08-06T03:48:35.635Z,23.46
2022-08-06T03:51:09.843Z,23.54
2022-08-06T03:53:46.934Z,23.56
2022-08-06T03:56:29.952Z,23.57
2022-08-06T03:59:04.999Z,23.65
2022-08-06T04:01:49.477Z,23.59
2022-08-06T04:04:27.280Z,23.69
2022-08-06T04:06:59.264Z,23.75
2022-08-06T04:10:00.595Z,23.84
2022-08-06T04:12:58.944Z,23.92
2022-08-06T04:15:15.792Z,23.99
2022-08-06T04:17:48.672Z,24.05
2022-08-06T04:20:41.502Z,24.16
2022-08-06T04:23:12.596Z,24.24
2022-08-06T04:25:50.677Z,24.31
2022-08-06T04:28:21.772Z,24.40
2022-08-06T04:30:53.296Z,24.45
2022-08-06T04:33:35.080Z,24.52
2022-08-06T04:36:23.729Z,24.56
2022-08-06T04:38:57.413Z,24.67
2022-08-06T04:41:31.371Z,24.72
2022-08-06T04:44:02.606Z,24.78
2022-08-06T04:46:32.672Z,24.77
2022-08-06T04:49:02.316Z,24.87
2022-08-06T04:52:35.070Z,24.91
2022-08-06T04:54:22.091Z,24.99
2022-08-06T04:56:58.545Z,25.04
2022-08-06T04:59:49.667Z,24.99
2022-08-06T05:02:16.651Z,25.03
2022-08-06T05:04:54.296Z,25.14
2022-08-06T05:07:29.071Z,25.16
2022-08-06T05:10:13.467Z,25.31
2022-08-06T05:12:49.952Z,25.34
2022-08-06T05:15:27.237Z,25.46
2022-08-06T05:18:03.476Z,25.49
2022-08-06T05:20:45.336Z,25.57
2022-08-06T05:23:23.074Z,25.59
2022-08-06T05:25:54.016Z,25.55
2022-08-06T05:28:27.670Z,25.59
2022-08-06T05:30:57.755Z,25.65
2022-08-06T05:33:30.643Z,25.72
2022-08-06T05:36:05.043Z,25.87
2022-08-06T05:38:37.528Z,25.89
2022-08-06T05:41:08.555Z,26.00
2022-08-06T05:43:58.907Z,26.06
2022-08-06T05:46:36.907Z,26.17
2022-08-06T05:49:55.325Z,26.21
2022-08-06T05:52:14.119Z,26.23
2022-08-06T05:54:52.578Z,26.33
2022-08-06T05:57:40.670Z,26.36
2022-08-06T06:00:32.387Z,26.40
2022-08-06T06:03:25.137Z,26.48
2022-08-06T06:06:05.983Z,26.44
2022-08-06T06:08:55.336Z,26.48
2022-08-06T06:11:54.800Z,26.46
2022-08-06T06:14:36.219Z,26.57
2022-08-06T06:17:39.637Z,26.71
2022-08-06T06:21:03.841Z,26.79
2022-08-06T06:23:16.386Z,26.79
2022-08-06T06:26:04.248Z,26.79
2022-08-06T06:28:49.740Z,26.79
2022-08-06T06:32:04.742Z,26.90
2022-08-06T06:34:32.061Z,26.95
2022-08-06T06:37:10.129Z,26.99
2022-08-06T06:39:47.314Z,27.06
2022-08-06T06:42:33.609Z,27.15
2022-08-06T06:46:34.940Z,27.20
2022-08-06T06:48:12.726Z,27.26
2022-08-06T06:50:50.198Z,27.22
2022-08-06T06:53:20.260Z,27.30
2022-08-06T06:56:02.648Z,27.30
2022-08-06T06:58:43.113Z,27.31
2022-08-06T07:01:28.430Z,27.49
2022-08-06T07:04:01.326Z,27.55
2022-08-06T07:06:43.907Z,27.51
2022-08-06T07:09:40.280Z,27.56
2022-08-06T07:12:14.489Z,27.62
2022-08-06T07:15:01.023Z,27.69
2022-08-06T07:17:44.593Z,27.75
2022-08-06T07:20:26.338Z,27.86
2022-08-06T07:24:02.859Z,27.88
2022-08-06T07:25:56.596Z,27.88
2022-08-06T07:28:31.411Z,27.95
2022-08-06T07:31:09.060Z,28.00
2022-08-06T07:34:01.454Z,28.12
2022-08-06T07:36:37.790Z,28.21
2022-08-06T07:39:16.132Z,28.27
2022-08-06T07:42:06.936Z,28.32
2022-08-06T07:44:56.522Z,28.32
2022-08-06T07:47:41.457Z,28.37
2022-08-06T07:50:23.896Z,28.40
2022-08-06T07:52:55.937Z,28.50
2022-08-06T07:55:37.022Z,28.41
2022-08-06T07:58:10.831Z,28.47
2022-08-06T08:00:49.391Z,28.46
2022-08-06T08:03:57.287Z,28.58
2022-08-06T08:06:29.393Z,28.71
2022-08-06T08:09:05.737Z,28.82
2022-08-06T08:12:17.196Z,28.88
2022-08-06T08:14:32.520Z,28.97
2022-08-06T08:17:01.651Z,29.04
2022-08-06T08:19:36.209Z,29.02
2022-08-06T08:22:08.859Z,29.02
2022-08-06T08:24:39.921Z,29.12
2022-08-06T08:27:23.191Z,29.21
2022-08-06T08:29:57.296Z,29.30
2022-08-06T08:32:28.435Z,29.39
2022-08-06T08:34:57.742Z,29.46
2022-08-06T08:37:31.885Z,29.46
2022-08-06T08:40:02.259Z,29.46
2022-08-06T08:42:45.751Z,29.39
2022-08-06T08:45:17.170Z,29.47
2022-08-06T08:47:57.652Z,29.48
2022-08-06T08:50:31.090Z,29.58
2022-08-06T08:53:09.187Z,29.54
2022-08-06T08:57:08.780Z,29.46
2022-08-06T08:58:41.889Z,29.49
2022-08-06T09:01:51.200Z,29.54
2022-08-06T09:04:06.414Z,29.65
2022-08-06T09:06:39.628Z,29.70
2022-08-06T09:09:15.987Z,29.58
2022-08-06T09:12:06.127Z,29.68
2022-08-06T09:14:36.773Z,29.54
2022-08-06T09:17:12.440Z,29.72
2022-08-06T09:19:42.338Z,29.74
2022-08-06T09:22:12.062Z,29.83
2022-08-06T09:24:41.761Z,29.97
2022-08-06T09:27:45.200Z,30.02
2022-08-06T09:30:25.531Z,30.11
2022-08-06T09:33:03.732Z,30.15
2022-08-06T09:35:44.510Z,30.18
2022-08-06T09:38:18.078Z,30.12
2022-08-06T09:41:15.334Z,30.17
2022-08-06T09:44:03.816Z,30.27
2022-08-06T09:46:48.771Z,30.31
2022-08-06T09:49:48.883Z,30.44
2022-08-06T09:52:17.812Z,30.37
2022-08-06T09:54:53.779Z,30.44
2022-08-06T09:57:35.895Z,30.65
2022-08-06T10:00:14.333Z,30.63
2022-08-06T10:02:51.195Z,30.44
2022-08-06T10:05:23.110Z,30.29
2022-08-06T10:08:08.118Z,30.42
2022-08-06T10:10:44.398Z,30.59
2022-08-06T10:13:22.841Z,30.64
2022-08-06T10:16:01.604Z,30.82
2022-08-06T10:18:55.191Z,30.87
2022-08-06T10:21:33.169Z,30.89
2022-08-06T10:24:12.921Z,30.88
2022-08-06T10:26:44.572Z,30.82
2022-08-06T10:29:17.144Z,30.81
2022-08-06T10:31:52.936Z,30.91
2022-08-06T10:34:31.086Z,31.13
2022-08-06T10:37:11.122Z,31.29
2022-08-06T10:40:09.278Z,31.26
2022-08-06T10:42:41.375Z,31.19
2022-08-06T10:45:16.667Z,31.25
2022-08-06T10:49:00.350Z,31.15
2022-08-06T10:50:54.415Z,31.15
2022-08-06T10:54:00.992Z,31.02
2022-08-06T10:56:21.766Z,31.00
2022-08-06T10:58:55.833Z,31.05
2022-08-06T11:01:43.357Z,31.30
2022-08-06T11:04:30.406Z,31.29
2022-08-06T11:08:10.066Z,31.38
2022-08-06T11:11:20.085Z,31.52
2022-08-06T11:14:04.761Z,31.65
2022-08-06T11:16:57.223Z,31.75
2022-08-06T11:19:57.526Z,31.56
2022-08-06T11:22:43.367Z,31.54
2022-08-06T11:25:40.556Z,31.27
2022-08-06T11:28:10.373Z,31.38
2022-08-06T11:30:46.135Z,31.35
2022-08-06T11:33:20.181Z,31.45
2022-08-06T11:35:54.032Z,31.44
2022-08-06T11:39:09.787Z,31.49
2022-08-06T11:42:02.303Z,31.50
2022-08-06T11:44:37.103Z,31.34
2022-08-06T11:47:30.509Z,31.46
2022-08-06T11:50:27.580Z,31.40
2022-08-06T11:52:56.761Z,31.67
2022-08-06T11:55:28.122Z,31.75
2022-08-06T11:58:24.050Z,31.70
2022-08-06T12:01:03.941Z,31.80
2022-08-06T12:03:55.263Z,31.74
2022-08-06T12:06:32.740Z,31.88
2022-08-06T12:09:13.118Z,31.73
2022-08-06T12:11:50.126Z,31.91
2022-08-06T12:14:47.290Z,32.00
2022-08-06T12:17:20.879Z,31.88
2022-08-06T12:20:01.280Z,31.94
2022-08-06T12:22:35.532Z,32.04
2022-08-06T12:25:10.694Z,32.13
2022-08-06T12:27:50.538Z,32.08
2022-08-06T12:30:36.491Z,31.90
2022-08-06T12:33:15.495Z,31.71
2022-08-06T12:35:56.239Z,31.37
2022-08-06T12:38:28.652Z,31.22
2022-08-06T12:41:01.388Z,31.00
2022-08-06T12:43:57.514Z,30.83
2022-08-06T12:46:33.503Z,30.60
2022-08-06T12:49:03.655Z,30.53
2022-08-06T12:51:33.284Z,30.37
2022-08-06T12:54:06.924Z,30.29
2022-08-06T12:56:41.326Z,30.25
2022-08-06T12:59:23.877Z,30.24
2022-08-06T13:02:10.071Z,30.18
2022-08-06T13:04:50.157Z,30.02
2022-08-06T13:07:21.067Z,29.04
2022-08-06T13:10:16.999Z,27.70
2022-08-06T13:14:02.986Z,26.67
2022-08-06T13:15:46.247Z,25.79
2022-08-06T13:18:41.190Z,25.10
2022-08-06T13:21:20.482Z,24.66
2022-08-06T13:23:58.737Z,24.44
2022-08-06T13:26:32.631Z,23.87
2022-08-06T13:30:31.882Z,23.36
2022-08-06T13:32:27.478Z,22.78
2022-08-06T13:35:03.681Z,22.48
2022-08-06T13:37:56.903Z,22.38
2022-08-06T13:40:51.788Z,22.29
2022-08-06T13:43:54.087Z,22.26
2022-08-06T13:46:33.021Z,22.12
2022-08-06T13:49:04.772Z,22.09
2022-08-06T13:51:49.105Z,21.97
2022-08-06T13:54:24.583Z,21.89
2022-08-06T13:56:55.981Z,21.94
2022-08-06T13:59:40.426Z,21.88
2022-08-06T14:02:12.286Z,21.84
2022-08-06T14:04:50.591Z,21.83
2022-08-06T14:07:20.525Z,21.73
2022-08-06T14:10:08.701Z,21.79
2022-08-06T14:12:43.662Z,21.59
2022-08-06T14:15:14.770Z,21.59
2022-08-06T14:17:47.201Z,21.67
2022-08-06T14:20:25.727Z,21.66
2022-08-06T14:22:56.838Z,21.67
2022-08-06T14:25:28.485Z,21.69
2022-08-06T14:27:58.075Z,21.66
2022-08-06T14:30:33.664Z,21.71
2022-08-06T14:33:18.742Z,21.69
2022-08-06T14:35:50.920Z,21.70
2022-08-06T14:38:32.133Z,21.66
2022-08-06T14:41:40.113Z,21.70
2022-08-06T14:44:26.232Z,21.69
2022-08-06T14:46:55.397Z,21.61
2022-08-06T14:49:24.580Z,21.65
2022-08-06T14:52:23.169Z,21.63
2022-08-06T14:54:56.294Z,21.64
2022-08-06T14:58:03.876Z,21.67
2022-08-06T15:00:34.595Z,21.67
2022-08-06T15:03:08.023Z,21.66
2022-08-06T15:06:00.192Z,21.66
2022-08-06T15:08:31.191Z,21.62
2022-08-06T15:11:02.050Z,21.60
2022-08-06T15:13:36.911Z,21.57
2022-08-06T15:16:10.896Z,21.61
2022-08-06T15:19:10.078Z,21.45
2022-08-06T15:21:54.534Z,21.33
2022-08-06T15:24:25.791Z,21.28
2022-08-06T15:26:56.350Z,21.05
2022-08-06T15:29:26.234Z,21.04
2022-08-06T15:32:01.930Z,20.81
2022-08-06T15:34:38.353Z,20.85
2022-08-06T15:37:21.679Z,20.49
2022-08-06T15:40:09.271Z,20.47
2022-08-06T15:42:44.535Z,20.34
2022-08-06T15:45:50.309Z,20.34
2022-08-06T15:48:05.744Z,20.33
2022-08-06T15:50:39.941Z,20.26
2022-08-06T15:53:23.247Z,20.24
2022-08-06T15:55:54.061Z,20.26
2022-08-06T15:58:28.172Z,20.17
2022-08-06T16:01:05.023Z,20.21
2022-08-06T16:03:57.737Z,20.19
2022-08-06T16:06:28.656Z,20.18
2022-08-06T16:09:03.871Z,20.13
2022-08-06T16:11:47.859Z,20.07
2022-08-06T16:14:20.300Z,20.05
2022-08-06T16:17:03.131Z,19.96
2022-08-06T16:19:33.875Z,19.93
2022-08-06T16:22:17.811Z,19.93
2022-08-06T16:24:48.940Z,19.89
2022-08-06T16:27:19.928Z,19.84
2022-08-06T16:29:49.912Z,19.70
2022-08-06T16:32:25.830Z,19.66
2022-08-06T16:35:00.177Z,19.66
2022-08-06T16:37:33.314Z,19.45
2022-08-06T16:42:59.081Z,19.20
2022-08-06T16:45:36.981Z,19.18
2022-08-06T16:48:25.193Z,19.09
2022-08-06T16:51:02.274Z,19.15
2022-08-06T16:54:08.383Z,18.96
2022-08-06T16:56:22.555Z,18.78
2022-08-06T16:58:54.090Z,18.81
2022-08-06T17:04:23.664Z,18.67
2022-08-06T17:06:54.548Z,18.59
2022-08-06T17:09:25.444Z,18.33
2022-08-06T17:14:52.664Z,18.40
2022-08-06T17:17:37.444Z,18.37
2022-08-06T17:20:15.738Z,18.39
2022-08-06T17:22:48.427Z,18.30
2022-08-06T17:28:08.425Z,18.22
2022-08-06T17:30:45.095Z,18.17
2022-08-06T17:33:23.100Z,18.13
2022-08-06T17:36:38.059Z,17.86
2022-08-06T17:38:43.029Z,17.74
2022-08-06T17:41:13.920Z,17.78
2022-08-06T17:42:30.499Z,19.40
2022-08-06T17:43:56.848Z,17.75
2022-08-06T17:46:31.418Z,17.73
2022-08-06T17:49:06.683Z,17.79
2022-08-06T17:51:37.251Z,17.84
2022-08-06T17:54:44.421Z,17.83
2022-08-06T17:57:00.110Z,17.87
2022-08-06T17:59:31.862Z,17.84
2022-08-06T18:02:03.740Z,17.86
2022-08-06T18:04:42.126Z,17.93
2022-08-06T18:07:59.649Z,17.93
2022-08-06T18:10:25.824Z,17.94
2022-08-06T18:13:02.892Z,17.96
2022-08-06T18:15:40.834Z,17.96
2022-08-06T18:18:21.483Z,17.96
2022-08-06T18:20:52.265Z,17.93
2022-08-06T18:23:22.103Z,17.89
2022-08-06T18:25:56.105Z,17.91
2022-08-06T18:28:39.591Z,17.83
2022-08-06T18:31:10.982Z,17.74
2022-08-06T18:33:48.181Z,17.71
2022-08-06T18:36:32.863Z,17.66
2022-08-06T18:39:03.236Z,17.68
2022-08-06T18:41:56.652Z,17.65
2022-08-06T18:44:30.438Z,17.70
2022-08-06T18:47:04.360Z,17.67
2022-08-06T18:49:50.613Z,17.69
2022-08-06T18:52:24.297Z,17.72
2022-08-06T18:54:56.968Z,17.68
2022-08-06T18:57:38.139Z,17.67
2022-08-06T19:00:23.672Z,17.66
2022-08-06T19:02:54.812Z,17.67
2022-08-06T19:05:29.750Z,17.67
2022-08-06T19:07:59.911Z,17.64
2022-08-06T19:10:33.419Z,17.70
2022-08-06T19:13:08.710Z,17.69
2022-08-06T19:15:45.196Z,17.69
2022-08-06T19:18:17.869Z,17.72
2022-08-06T19:20:54.050Z,17.70
2022-08-06T19:24:01.881Z,17.70
2022-08-06T19:26:15.298Z,17.70
2022-08-06T19:28:49.203Z,17.72
2022-08-06T19:31:41.887Z,17.65
2022-08-06T19:34:20.868Z,17.65
2022-08-06T19:36:54.525Z,17.68
2022-08-06T19:39:53.853Z,17.65
2022-08-06T19:42:32.077Z,17.72
2022-08-06T19:45:04.065Z,17.71
2022-08-06T19:47:49.850Z,17.70
2022-08-06T19:50:20.379Z,17.72
2022-08-06T19:52:53.460Z,17.72
2022-08-06T19:56:06.276Z,17.76
2022-08-06T19:58:26.088Z,17.74
2022-08-06T20:01:31.806Z,17.75
2022-08-06T20:04:00.677Z,17.74
2022-08-06T20:07:01.271Z,17.73
2022-08-06T20:09:41.921Z,17.74
2022-08-06T20:12:18.443Z,17.72
2022-08-06T20:14:48.073Z,17.72
2022-08-06T20:17:17.972Z,17.75
2022-08-06T20:20:06.692Z,17.79
2022-08-06T20:22:44.530Z,17.74
2022-08-06T20:25:23.773Z,17.68
2022-08-06T20:29:07.061Z,17.67
2022-08-06T20:30:50.423Z,17.64
2022-08-06T20:33:24.747Z,17.60
2022-08-06T20:35:59.812Z,17.56
2022-08-06T20:38:43.054Z,17.54
2022-08-06T20:41:56.719Z,17.53
2022-08-06T20:44:07.973Z,17.58
2022-08-06T20:47:01.090Z,17.58
2022-08-06T20:50:02.568Z,17.49
2022-08-06T20:52:21.854Z,17.45
2022-08-06T20:54:53.025Z,17.45
2022-08-06T20:57:26.556Z,17.49
2022-08-06T20:59:59.681Z,17.47
2022-08-06T21:02:32.936Z,17.49
2022-08-06T21:05:13.867Z,17.49
2022-08-06T21:07:51.022Z,17.46
2022-08-06T21:10:30.967Z,17.43
2022-08-06T21:13:06.163Z,17.44
2022-08-06T21:15:54.446Z,17.39
2022-08-06T21:18:25.164Z,17.39
2022-08-06T21:20:57.148Z,17.37
2022-08-06T21:23:55.616Z,17.38
2022-08-06T21:26:18.608Z,17.37
2022-08-06T21:28:55.507Z,17.38
2022-08-06T21:31:27.223Z,17.35
2022-08-06T21:33:57.719Z,17.37
2022-08-06T21:36:28.778Z,17.37
2022-08-06T21:38:58.848Z,17.36
2022-08-06T21:41:56.701Z,17.32
2022-08-06T21:44:24.537Z,17.35
2022-08-06T21:46:58.934Z,17.32
2022-08-06T21:49:58.653Z,17.32
2022-08-06T21:52:27.997Z,17.32
2022-08-06T21:55:11.402Z,17.32
2022-08-06T21:57:50.485Z,17.32
2022-08-06T22:00:43.645Z,17.28
2022-08-06T22:04:34.735Z,17.27
2022-08-06T22:06:20.560Z,17.22
2022-08-06T22:08:58.239Z,17.32
2022-08-06T22:12:40.102Z,17.28
2022-08-06T22:14:28.699Z,17.30
2022-08-06T22:17:06.749Z,17.25
2022-08-06T22:19:39.170Z,17.28
2022-08-06T22:22:08.578Z,17.30
2022-08-06T22:24:39.828Z,17.28
2022-08-06T22:27:12.836Z,17.29
2022-08-06T22:30:04.160Z,17.21
2022-08-06T22:32:36.273Z,17.28
2022-08-06T22:35:09.555Z,17.20
2022-08-06T22:38:19.877Z,17.20
2022-08-06T22:40:30.606Z,17.19
2022-08-06T22:43:05.076Z,17.19
2022-08-06T22:46:02.961Z,17.13
2022-08-06T22:48:36.866Z,17.15
2022-08-06T22:51:10.625Z,17.10
2022-08-06T22:54:26.512Z,17.06
2022-08-06T22:56:29.718Z,17.09
2022-08-06T22:59:06.102Z,17.07
2022-08-06T23:02:06.176Z,17.04
2022-08-06T23:04:41.202Z,17.00
2022-08-06T23:07:10.276Z,17.01
2022-08-06T23:09:39.996Z,16.94
2022-08-06T23:12:12.814Z,16.93
2022-08-06T23:14:43.227Z,16.95
2022-08-06T23:17:22.086Z,16.87
2022-08-06T23:19:57.215Z,16.93
2022-08-06T23:22:28.878Z,16.91
2022-08-06T23:25:58.164Z,16.88
2022-08-06T23:27:51.673Z,16.90
2022-08-06T23:30:21.249Z,16.81
2022-08-06T23:32:50.691Z,16.78
2022-08-06T23:35:36.646Z,16.69
2022-08-06T23:38:34.278Z,16.73
2022-08-06T23:40:58.990Z,16.64
2022-08-06T23:43:34.791Z,16.58
2022-08-06T23:46:04.957Z,16.61
2022-08-06T23:48:34.433Z,16.57
2022-08-06T23:51:05.566Z,16.53
2022-08-06T23:54:06.503Z,16.57
2022-08-06T23:56:26.678Z,16.53
2022-08-06T23:58:58.756Z,16.47
